Alice, TX

8:31 PM CDT on September 03, 2015 (GMT -0500)
Alice International | | Change Station
CLOSE
Current Station
Airport
Location: Alice,
Elevation: 177 ft
Nearby Weather Stations

Elev 177 ft 27.74 °N, 98.03 °W | Updated 38 minutes ago

Clear
Clear
84 °F
Feels Like 91 °F
N
13
Wind Variable Wind from ESE

Today
High -- | Low -- °F
--% Chance of Precip.
Yesterday
High -- | Low -- °F
Precip. -- in
7:11 AM 7:51 PM
Waning Gibbous, 65% visible
Pressure 29.81 in
Visibility 10.0 miles
Clouds Clear
Heat Index 91 °F
Dew Point 74 °F
Humidity 72%
Rainfall 0.00 in
Snow Depth Not available.
UV 0 out of 12
Pollen 7.20 out of 12
Air Quality Not available.
Flu Activity Not available.
METAR KALI 040053Z AUTO 11011KT 10SM CLR 29/23 A2981 RMK AO2 SLP092 T02890233 $
Pressure 29.81 in
Visibility 10.0 miles
Clouds Clear
Heat Index 91 °F
Dew Point 74 °F
Humidity 72%
Rainfall 0.00 in
Snow Depth Not available.
UV 0 out of 12
Pollen 7.20 out of 12
Air Quality Not available.
Flu Activity Not available.
METAR KALI 040053Z AUTO 11011KT 10SM CLR 29/23 A2981 RMK AO2 SLP092 T02890233 $
Nowcast | as of 7:10 PM CDT on September 3, 2015

Through 930 PM CDT...isolated showers will continue to affect portions of south Texas and the middle Texas coastal waters. Expect brief periods of moderate to heavy rain. Rainfall amounts will generally be less than a quarter of an inch.

×

10-Day Weather Forecast

×

Almanac

Astronomy

Sep. 03, 2015 Rise Set
Actual Time
Civil Twilight
Nautical Twilight
Astronomical Twilight
Moon
Length of Visible Light
Length of Day
Tomorrow will be .
, % of the Moon is Illuminated

Today's Extremes

State Highs State Lows

Community

WunderPhotos

Upload Photos

1,852,086 photos uploaded!

WunderBlogs® & News

Nearby

Air Quality

  Air Quality AQ Index Pollutant
Not available.

Snow Depth

Station Depth Elevation

Earthquake Activity

City Distance Mag. Time & Date
Minimum magnitude displayed is 2.5.

Coastal Water Temperatures

Place Temperature

Stations

Nearby Weather Stations

Station Location Temp. Windchill Dew Point Humidity Wind Precip. Elev Updated Type